sensor_id;sensor_type;location;lat;lon;timestamp;temperature;humidity
20380;DHT22;10349;48.666;8.948;2023-04-24T00:02:05;9.50;99.90
20380;DHT22;10349;48.666;8.948;2023-04-24T00:04:32;9.60;99.90
20380;DHT22;10349;48.666;8.948;2023-04-24T00:06:58;9.50;99.90
20380;DHT22;10349;48.666;8.948;2023-04-24T00:09:25;9.60;99.90
20380;DHT22;10349;48.666;8.948;2023-04-24T00:11:52;9.60;99.90
20380;DHT22;10349;48.666;8.948;2023-04-24T00:14:18;9.70;99.90
20380;DHT22;10349;48.666;8.948;2023-04-24T00:16:43;9.70;99.90
20380;DHT22;10349;48.666;8.948;2023-04-24T00:19:09;9.70;99.90
20380;DHT22;10349;48.666;8.948;2023-04-24T00:21:37;9.70;99.90
20380;DHT22;10349;48.666;8.948;2023-04-24T00:24:06;9.80;99.90
20380;DHT22;10349;48.666;8.948;2023-04-24T00:26:34;9.70;99.90
20380;DHT22;10349;48.666;8.948;2023-04-24T00:29:00;9.70;99.90
20380;DHT22;10349;48.666;8.948;2023-04-24T00:31:26;9.80;99.90
20380;DHT22;10349;48.666;8.948;2023-04-24T00:33:52;9.80;99.90
20380;DHT22;10349;48.666;8.948;2023-04-24T00:36:18;9.70;99.90
20380;DHT22;10349;48.666;8.948;2023-04-24T00:38:46;9.80;99.90
20380;DHT22;10349;48.666;8.948;2023-04-24T00:41:12;9.70;99.90
20380;DHT22;10349;48.666;8.948;2023-04-24T00:43:38;9.70;99.90
20380;DHT22;10349;48.666;8.948;2023-04-24T00:46:04;9.80;99.90
20380;DHT22;10349;48.666;8.948;2023-04-24T00:48:31;9.80;99.90
20380;DHT22;10349;48.666;8.948;2023-04-24T00:50:57;9.80;99.90
20380;DHT22;10349;48.666;8.948;2023-04-24T00:53:24;9.80;99.90
20380;DHT22;10349;48.666;8.948;2023-04-24T00:55:50;9.80;99.90
20380;DHT22;10349;48.666;8.948;2023-04-24T00:58:16;9.80;99.90
20380;DHT22;10349;48.666;8.948;2023-04-24T01:00:43;9.80;99.90
20380;DHT22;10349;48.666;8.948;2023-04-24T01:03:09;9.80;99.90
20380;DHT22;10349;48.666;8.948;2023-04-24T01:05:36;9.80;99.90
20380;DHT22;10349;48.666;8.948;2023-04-24T01:08:02;9.80;99.90
20380;DHT22;10349;48.666;8.948;2023-04-24T01:10:29;9.80;99.90
20380;DHT22;10349;48.666;8.948;2023-04-24T01:12:56;9.80;99.90
20380;DHT22;10349;48.666;8.948;2023-04-24T01:15:23;9.80;99.90
20380;DHT22;10349;48.666;8.948;2023-04-24T01:17:48;9.80;99.90
20380;DHT22;10349;48.666;8.948;2023-04-24T01:20:14;9.80;99.90
20380;DHT22;10349;48.666;8.948;2023-04-24T01:22:41;9.70;99.90
20380;DHT22;10349;48.666;8.948;2023-04-24T01:25:08;9.70;99.90
20380;DHT22;10349;48.666;8.948;2023-04-24T01:27:33;9.70;99.90
20380;DHT22;10349;48.666;8.948;2023-04-24T01:29:59;9.80;99.90
20380;DHT22;10349;48.666;8.948;2023-04-24T01:32:28;9.70;99.90
20380;DHT22;10349;48.666;8.948;2023-04-24T01:34:54;9.70;99.90
20380;DHT22;10349;48.666;8.948;2023-04-24T01:37:21;9.60;99.90
20380;DHT22;10349;48.666;8.948;2023-04-24T01:39:46;9.80;99.90
20380;DHT22;10349;48.666;8.948;2023-04-24T01:42:13;9.60;99.90
20380;DHT22;10349;48.666;8.948;2023-04-24T01:44:39;9.60;99.90
20380;DHT22;10349;48.666;8.948;2023-04-24T01:47:05;9.60;99.90
20380;DHT22;10349;48.666;8.948;2023-04-24T01:49:31;9.50;99.90
20380;DHT22;10349;48.666;8.948;2023-04-24T01:51:58;9.60;99.90
20380;DHT22;10349;48.666;8.948;2023-04-24T01:54:24;9.50;99.90
20380;DHT22;10349;48.666;8.948;2023-04-24T01:56:49;9.50;99.90
20380;DHT22;10349;48.666;8.948;2023-04-24T01:59:17;9.40;99.90
20380;DHT22;10349;48.666;8.948;2023-04-24T02:01:42;9.40;99.90
20380;DHT22;10349;48.666;8.948;2023-04-24T02:04:08;9.40;99.90
20380;DHT22;10349;48.666;8.948;2023-04-24T02:06:35;9.40;99.90
20380;DHT22;10349;48.666;8.948;2023-04-24T02:09:00;9.40;99.90
20380;DHT22;10349;48.666;8.948;2023-04-24T02:11:27;9.30;99.90
20380;DHT22;10349;48.666;8.948;2023-04-24T02:13:53;9.30;99.90
20380;DHT22;10349;48.666;8.948;2023-04-24T02:16:19;9.30;99.90
20380;DHT22;10349;48.666;8.948;2023-04-24T02:18:45;9.30;99.90
20380;DHT22;10349;48.666;8.948;2023-04-24T02:21:11;9.30;99.90
20380;DHT22;10349;48.666;8.948;2023-04-24T02:23:41;9.30;99.90
20380;DHT22;10349;48.666;8.948;2023-04-24T02:26:06;9.30;99.90
20380;DHT22;10349;48.666;8.948;2023-04-24T02:28:32;9.30;99.90
20380;DHT22;10349;48.666;8.948;2023-04-24T02:30:58;9.20;99.90
20380;DHT22;10349;48.666;8.948;2023-04-24T02:33:24;9.30;99.90
20380;DHT22;10349;48.666;8.948;2023-04-24T02:35:50;9.30;99.90
20380;DHT22;10349;48.666;8.948;2023-04-24T02:38:15;9.20;99.90
20380;DHT22;10349;48.666;8.948;2023-04-24T02:40:42;9.20;99.90
20380;DHT22;10349;48.666;8.948;2023-04-24T02:43:09;9.20;99.90
20380;DHT22;10349;48.666;8.948;2023-04-24T02:45:35;9.30;99.90
20380;DHT22;10349;48.666;8.948;2023-04-24T02:48:01;9.20;99.90
20380;DHT22;10349;48.666;8.948;2023-04-24T02:50:27;9.30;99.90
20380;DHT22;10349;48.666;8.948;2023-04-24T02:52:53;9.30;99.90
20380;DHT22;10349;48.666;8.948;2023-04-24T02:55:18;9.30;99.90
20380;DHT22;10349;48.666;8.948;2023-04-24T02:57:44;9.30;99.90
20380;DHT22;10349;48.666;8.948;2023-04-24T03:00:10;9.30;99.90
20380;DHT22;10349;48.666;8.948;2023-04-24T03:02:37;9.30;99.90
20380;DHT22;10349;48.666;8.948;2023-04-24T03:05:03;9.30;99.90
20380;DHT22;10349;48.666;8.948;2023-04-24T03:07:30;9.20;99.90
20380;DHT22;10349;48.666;8.948;2023-04-24T03:09:58;9.20;99.90
20380;DHT22;10349;48.666;8.948;2023-04-24T03:12:25;9.20;99.90
20380;DHT22;10349;48.666;8.948;2023-04-24T03:14:51;9.20;99.90
20380;DHT22;10349;48.666;8.948;2023-04-24T03:17:18;9.10;99.90
20380;DHT22;10349;48.666;8.948;2023-04-24T03:19:46;9.10;99.90
20380;DHT22;10349;48.666;8.948;2023-04-24T03:22:12;9.10;99.90
20380;DHT22;10349;48.666;8.948;2023-04-24T03:24:42;9.10;99.90
20380;DHT22;10349;48.666;8.948;2023-04-24T03:27:08;9.20;99.90
20380;DHT22;10349;48.666;8.948;2023-04-24T03:29:48;9.10;99.90
20380;DHT22;10349;48.666;8.948;2023-04-24T03:32:20;9.00;99.90
20380;DHT22;10349;48.666;8.948;2023-04-24T03:34:48;9.00;99.90
20380;DHT22;10349;48.666;8.948;2023-04-24T03:37:15;9.00;99.90
20380;DHT22;10349;48.666;8.948;2023-04-24T03:39:46;8.90;99.90
20380;DHT22;10349;48.666;8.948;2023-04-24T03:42:13;8.90;99.90
20380;DHT22;10349;48.666;8.948;2023-04-24T03:44:48;8.90;99.90
20380;DHT22;10349;48.666;8.948;2023-04-24T03:47:14;8.80;99.90
20380;DHT22;10349;48.666;8.948;2023-04-24T03:49:41;8.80;99.90
20380;DHT22;10349;48.666;8.948;2023-04-24T03:52:07;8.80;99.90
20380;DHT22;10349;48.666;8.948;2023-04-24T03:54:33;8.70;99.90
20380;DHT22;10349;48.666;8.948;2023-04-24T03:56:59;8.70;99.90
20380;DHT22;10349;48.666;8.948;2023-04-24T03:59:30;8.70;99.90
20380;DHT22;10349;48.666;8.948;2023-04-24T04:02:08;8.70;99.90
20380;DHT22;10349;48.666;8.948;2023-04-24T04:04:37;8.70;99.90
20380;DHT22;10349;48.666;8.948;2023-04-24T04:07:03;8.70;99.90
20380;DHT22;10349;48.666;8.948;2023-04-24T04:09:35;8.70;99.90
20380;DHT22;10349;48.666;8.948;2023-04-24T04:12:01;8.70;99.90
20380;DHT22;10349;48.666;8.948;2023-04-24T04:14:31;8.70;99.90
20380;DHT22;10349;48.666;8.948;2023-04-24T04:16:57;8.80;99.90
20380;DHT22;10349;48.666;8.948;2023-04-24T04:19:23;8.80;99.90
20380;DHT22;10349;48.666;8.948;2023-04-24T04:21:50;8.80;99.90
20380;DHT22;10349;48.666;8.948;2023-04-24T04:24:48;8.80;99.90
20380;DHT22;10349;48.666;8.948;2023-04-24T04:27:18;8.80;99.90
20380;DHT22;10349;48.666;8.948;2023-04-24T04:29:51;8.70;99.90
20380;DHT22;10349;48.666;8.948;2023-04-24T04:32:18;8.50;99.90
20380;DHT22;10349;48.666;8.948;2023-04-24T04:34:44;8.40;99.90
20380;DHT22;10349;48.666;8.948;2023-04-24T04:37:15;8.30;99.90
20380;DHT22;10349;48.666;8.948;2023-04-24T04:40:01;8.20;99.90
20380;DHT22;10349;48.666;8.948;2023-04-24T04:42:36;8.10;99.90
20380;DHT22;10349;48.666;8.948;2023-04-24T04:45:07;8.00;99.90
20380;DHT22;10349;48.666;8.948;2023-04-24T04:47:46;8.00;99.90
20380;DHT22;10349;48.666;8.948;2023-04-24T04:50:12;7.90;99.90
20380;DHT22;10349;48.666;8.948;2023-04-24T04:52:37;7.90;99.90
20380;DHT22;10349;48.666;8.948;2023-04-24T04:55:13;7.90;99.90
20380;DHT22;10349;48.666;8.948;2023-04-24T04:58:06;7.90;99.90
20380;DHT22;10349;48.666;8.948;2023-04-24T05:00:32;7.80;99.90
20380;DHT22;10349;48.666;8.948;2023-04-24T05:03:03;7.90;99.90
20380;DHT22;10349;48.666;8.948;2023-04-24T05:05:29;7.80;99.90
20380;DHT22;10349;48.666;8.948;2023-04-24T05:07:55;7.80;99.90
20380;DHT22;10349;48.666;8.948;2023-04-24T05:10:21;7.90;99.90
20380;DHT22;10349;48.666;8.948;2023-04-24T05:12:47;7.80;99.90
20380;DHT22;10349;48.666;8.948;2023-04-24T05:15:15;7.90;99.90
20380;DHT22;10349;48.666;8.948;2023-04-24T05:17:41;7.90;99.90
20380;DHT22;10349;48.666;8.948;2023-04-24T05:20:07;7.90;99.90
20380;DHT22;10349;48.666;8.948;2023-04-24T05:22:35;7.90;99.90
20380;DHT22;10349;48.666;8.948;2023-04-24T05:25:02;7.90;99.90
20380;DHT22;10349;48.666;8.948;2023-04-24T05:27:47;7.90;99.90
20380;DHT22;10349;48.666;8.948;2023-04-24T05:30:19;7.90;99.90
20380;DHT22;10349;48.666;8.948;2023-04-24T05:32:46;7.90;99.90
20380;DHT22;10349;48.666;8.948;2023-04-24T05:35:13;8.00;99.90
20380;DHT22;10349;48.666;8.948;2023-04-24T05:37:40;8.00;99.90
20380;DHT22;10349;48.666;8.948;2023-04-24T05:40:07;8.00;99.90
20380;DHT22;10349;48.666;8.948;2023-04-24T05:42:33;8.00;99.90
20380;DHT22;10349;48.666;8.948;2023-04-24T05:44:58;8.10;99.90
20380;DHT22;10349;48.666;8.948;2023-04-24T05:47:26;8.10;99.90
20380;DHT22;10349;48.666;8.948;2023-04-24T05:49:53;8.10;99.90
20380;DHT22;10349;48.666;8.948;2023-04-24T05:52:19;8.10;99.90
20380;DHT22;10349;48.666;8.948;2023-04-24T05:54:47;8.00;99.90
20380;DHT22;10349;48.666;8.948;2023-04-24T05:57:18;8.10;99.90
20380;DHT22;10349;48.666;8.948;2023-04-24T05:59:52;8.00;99.90
20380;DHT22;10349;48.666;8.948;2023-04-24T06:02:20;8.00;99.90
20380;DHT22;10349;48.666;8.948;2023-04-24T06:04:45;8.10;99.90
20380;DHT22;10349;48.666;8.948;2023-04-24T06:07:11;8.00;99.90
20380;DHT22;10349;48.666;8.948;2023-04-24T06:09:38;8.10;99.90
20380;DHT22;10349;48.666;8.948;2023-04-24T06:12:04;8.20;99.90
20380;DHT22;10349;48.666;8.948;2023-04-24T06:15:04;8.20;99.90
20380;DHT22;10349;48.666;8.948;2023-04-24T06:17:51;8.40;99.90
20380;DHT22;10349;48.666;8.948;2023-04-24T06:20:18;8.50;99.90
20380;DHT22;10349;48.666;8.948;2023-04-24T06:22:44;8.60;99.90
20380;DHT22;10349;48.666;8.948;2023-04-24T06:25:10;8.70;99.90
20380;DHT22;10349;48.666;8.948;2023-04-24T06:27:38;8.80;99.90
20380;DHT22;10349;48.666;8.948;2023-04-24T06:30:04;8.90;99.90
20380;DHT22;10349;48.666;8.948;2023-04-24T06:32:33;8.90;99.90
20380;DHT22;10349;48.666;8.948;2023-04-24T06:34:59;9.00;99.90
20380;DHT22;10349;48.666;8.948;2023-04-24T06:37:25;9.20;99.90
20380;DHT22;10349;48.666;8.948;2023-04-24T06:39:51;9.30;99.90
20380;DHT22;10349;48.666;8.948;2023-04-24T06:42:17;9.40;99.90
20380;DHT22;10349;48.666;8.948;2023-04-24T06:44:43;9.40;99.90
20380;DHT22;10349;48.666;8.948;2023-04-24T06:47:10;9.60;99.90
20380;DHT22;10349;48.666;8.948;2023-04-24T06:49:41;9.80;99.90
20380;DHT22;10349;48.666;8.948;2023-04-24T06:52:07;9.90;99.90
20380;DHT22;10349;48.666;8.948;2023-04-24T06:54:33;9.80;99.90
20380;DHT22;10349;48.666;8.948;2023-04-24T06:56:59;9.70;99.90
20380;DHT22;10349;48.666;8.948;2023-04-24T06:59:29;9.60;99.90
20380;DHT22;10349;48.666;8.948;2023-04-24T07:01:56;9.50;99.90
20380;DHT22;10349;48.666;8.948;2023-04-24T07:04:22;9.40;99.90
20380;DHT22;10349;48.666;8.948;2023-04-24T07:06:48;9.30;99.90
20380;DHT22;10349;48.666;8.948;2023-04-24T07:09:15;9.20;99.90
20380;DHT22;10349;48.666;8.948;2023-04-24T07:11:44;8.90;99.90
20380;DHT22;10349;48.666;8.948;2023-04-24T07:14:10;8.80;99.90
20380;DHT22;10349;48.666;8.948;2023-04-24T07:16:36;8.70;99.90
20380;DHT22;10349;48.666;8.948;2023-04-24T07:19:02;8.60;99.90
20380;DHT22;10349;48.666;8.948;2023-04-24T07:21:27;8.70;99.90
20380;DHT22;10349;48.666;8.948;2023-04-24T07:23:53;8.80;99.90
20380;DHT22;10349;48.666;8.948;2023-04-24T07:26:20;8.90;99.90
20380;DHT22;10349;48.666;8.948;2023-04-24T07:28:46;9.10;99.90
20380;DHT22;10349;48.666;8.948;2023-04-24T07:31:12;9.20;99.90
20380;DHT22;10349;48.666;8.948;2023-04-24T07:33:41;9.40;99.90
20380;DHT22;10349;48.666;8.948;2023-04-24T07:36:06;9.50;99.90
20380;DHT22;10349;48.666;8.948;2023-04-24T07:38:32;9.50;99.90
20380;DHT22;10349;48.666;8.948;2023-04-24T07:40:58;9.60;99.90
20380;DHT22;10349;48.666;8.948;2023-04-24T07:43:24;9.70;99.90
20380;DHT22;10349;48.666;8.948;2023-04-24T07:45:50;9.80;99.90
20380;DHT22;10349;48.666;8.948;2023-04-24T07:48:16;9.80;99.90
20380;DHT22;10349;48.666;8.948;2023-04-24T07:50:44;9.70;99.90
20380;DHT22;10349;48.666;8.948;2023-04-24T07:53:10;9.60;99.90
20380;DHT22;10349;48.666;8.948;2023-04-24T07:55:36;9.70;99.90
20380;DHT22;10349;48.666;8.948;2023-04-24T07:58:01;9.70;99.90
20380;DHT22;10349;48.666;8.948;2023-04-24T08:00:27;9.70;99.90
20380;DHT22;10349;48.666;8.948;2023-04-24T08:02:53;9.70;99.90
20380;DHT22;10349;48.666;8.948;2023-04-24T08:05:18;9.70;99.90
20380;DHT22;10349;48.666;8.948;2023-04-24T08:07:45;9.70;99.90
20380;DHT22;10349;48.666;8.948;2023-04-24T08:10:14;9.80;99.90
20380;DHT22;10349;48.666;8.948;2023-04-24T08:12:40;9.70;99.90
20380;DHT22;10349;48.666;8.948;2023-04-24T08:15:07;9.70;99.90
20380;DHT22;10349;48.666;8.948;2023-04-24T08:17:34;9.80;99.90
20380;DHT22;10349;48.666;8.948;2023-04-24T08:20:01;9.90;99.90
20380;DHT22;10349;48.666;8.948;2023-04-24T08:22:27;10.10;99.90
20380;DHT22;10349;48.666;8.948;2023-04-24T08:24:54;10.20;99.90
20380;DHT22;10349;48.666;8.948;2023-04-24T08:27:20;10.30;99.90
20380;DHT22;10349;48.666;8.948;2023-04-24T08:29:45;10.30;99.90
20380;DHT22;10349;48.666;8.948;2023-04-24T08:32:14;10.20;99.90
20380;DHT22;10349;48.666;8.948;2023-04-24T08:34:39;10.00;99.90
20380;DHT22;10349;48.666;8.948;2023-04-24T08:37:05;9.90;99.90
20380;DHT22;10349;48.666;8.948;2023-04-24T08:39:31;9.90;99.90
20380;DHT22;10349;48.666;8.948;2023-04-24T08:41:56;9.80;99.90
20380;DHT22;10349;48.666;8.948;2023-04-24T08:44:23;9.80;99.90
20380;DHT22;10349;48.666;8.948;2023-04-24T08:46:48;9.70;99.90
20380;DHT22;10349;48.666;8.948;2023-04-24T08:49:15;9.80;99.90
20380;DHT22;10349;48.666;8.948;2023-04-24T08:51:44;9.70;99.90
20380;DHT22;10349;48.666;8.948;2023-04-24T08:54:12;9.60;99.90
20380;DHT22;10349;48.666;8.948;2023-04-24T08:56:38;9.50;99.90
20380;DHT22;10349;48.666;8.948;2023-04-24T08:59:06;9.60;99.90
20380;DHT22;10349;48.666;8.948;2023-04-24T09:01:32;9.90;99.90
20380;DHT22;10349;48.666;8.948;2023-04-24T09:04:03;10.10;99.90
20380;DHT22;10349;48.666;8.948;2023-04-24T09:06:30;10.20;99.90
20380;DHT22;10349;48.666;8.948;2023-04-24T09:09:00;10.30;99.90
20380;DHT22;10349;48.666;8.948;2023-04-24T09:11:27;10.40;99.90
20380;DHT22;10349;48.666;8.948;2023-04-24T09:13:56;10.30;99.90
20380;DHT22;10349;48.666;8.948;2023-04-24T09:16:25;10.30;99.90
20380;DHT22;10349;48.666;8.948;2023-04-24T09:18:51;10.20;99.90
20380;DHT22;10349;48.666;8.948;2023-04-24T09:21:17;10.00;99.90
20380;DHT22;10349;48.666;8.948;2023-04-24T09:23:43;9.90;99.90
20380;DHT22;10349;48.666;8.948;2023-04-24T09:26:09;10.10;99.90
20380;DHT22;10349;48.666;8.948;2023-04-24T09:28:38;10.20;99.90
20380;DHT22;10349;48.666;8.948;2023-04-24T09:31:08;10.20;99.90
20380;DHT22;10349;48.666;8.948;2023-04-24T09:33:34;10.20;99.90
20380;DHT22;10349;48.666;8.948;2023-04-24T09:36:00;10.30;99.90
20380;DHT22;10349;48.666;8.948;2023-04-24T09:38:34;10.50;99.90
20380;DHT22;10349;48.666;8.948;2023-04-24T09:41:05;10.80;99.90
20380;DHT22;10349;48.666;8.948;2023-04-24T09:43:31;10.90;99.90
20380;DHT22;10349;48.666;8.948;2023-04-24T09:45:58;11.10;99.90
20380;DHT22;10349;48.666;8.948;2023-04-24T09:48:35;11.20;99.90
20380;DHT22;10349;48.666;8.948;2023-04-24T09:51:03;11.20;99.90
20380;DHT22;10349;48.666;8.948;2023-04-24T09:53:30;11.30;99.90
20380;DHT22;10349;48.666;8.948;2023-04-24T09:56:02;11.10;99.90
20380;DHT22;10349;48.666;8.948;2023-04-24T09:58:29;11.10;99.90
20380;DHT22;10349;48.666;8.948;2023-04-24T10:00:56;11.00;99.90
20380;DHT22;10349;48.666;8.948;2023-04-24T10:03:26;10.90;99.90
20380;DHT22;10349;48.666;8.948;2023-04-24T10:05:58;10.90;99.90
20380;DHT22;10349;48.666;8.948;2023-04-24T10:08:25;11.00;99.90
20380;DHT22;10349;48.666;8.948;2023-04-24T10:10:54;11.20;99.90
20380;DHT22;10349;48.666;8.948;2023-04-24T10:13:21;11.20;99.90
20380;DHT22;10349;48.666;8.948;2023-04-24T10:15:48;11.30;99.90
20380;DHT22;10349;48.666;8.948;2023-04-24T10:18:15;11.30;99.90
20380;DHT22;10349;48.666;8.948;2023-04-24T10:20:41;11.20;99.90
20380;DHT22;10349;48.666;8.948;2023-04-24T10:23:07;11.00;99.90
20380;DHT22;10349;48.666;8.948;2023-04-24T10:25:35;11.00;99.90
20380;DHT22;10349;48.666;8.948;2023-04-24T10:28:02;11.00;99.90
20380;DHT22;10349;48.666;8.948;2023-04-24T10:30:31;10.90;99.90
20380;DHT22;10349;48.666;8.948;2023-04-24T10:33:01;11.10;99.90
20380;DHT22;10349;48.666;8.948;2023-04-24T10:35:26;11.20;99.90
20380;DHT22;10349;48.666;8.948;2023-04-24T10:37:58;11.10;99.90
20380;DHT22;10349;48.666;8.948;2023-04-24T10:40:35;11.20;99.90
20380;DHT22;10349;48.666;8.948;2023-04-24T10:43:08;11.20;99.90
20380;DHT22;10349;48.666;8.948;2023-04-24T10:45:37;11.10;99.90
20380;DHT22;10349;48.666;8.948;2023-04-24T10:48:06;11.00;99.90
20380;DHT22;10349;48.666;8.948;2023-04-24T10:50:53;11.00;99.90
20380;DHT22;10349;48.666;8.948;2023-04-24T10:53:21;11.00;99.90
20380;DHT22;10349;48.666;8.948;2023-04-24T10:55:52;10.80;99.90
20380;DHT22;10349;48.666;8.948;2023-04-24T10:58:23;10.90;99.90
20380;DHT22;10349;48.666;8.948;2023-04-24T11:00:57;10.80;99.90
20380;DHT22;10349;48.666;8.948;2023-04-24T11:05:52;11.00;99.90
20380;DHT22;10349;48.666;8.948;2023-04-24T11:10:56;11.30;99.90
20380;DHT22;10349;48.666;8.948;2023-04-24T11:13:24;11.40;99.90
20380;DHT22;10349;48.666;8.948;2023-04-24T11:16:13;11.40;99.90
20380;DHT22;10349;48.666;8.948;2023-04-24T11:18:40;11.30;99.90
20380;DHT22;10349;48.666;8.948;2023-04-24T11:21:12;11.30;99.90
20380;DHT22;10349;48.666;8.948;2023-04-24T11:23:39;10.90;99.90
20380;DHT22;10349;48.666;8.948;2023-04-24T11:28:44;10.60;99.90
20380;DHT22;10349;48.666;8.948;2023-04-24T11:31:39;10.80;99.90
20380;DHT22;10349;48.666;8.948;2023-04-24T11:34:13;10.90;99.90
20380;DHT22;10349;48.666;8.948;2023-04-24T11:36:44;10.80;99.90
20380;DHT22;10349;48.666;8.948;2023-04-24T11:39:09;10.70;99.90
20380;DHT22;10349;48.666;8.948;2023-04-24T11:41:37;10.70;99.90
20380;DHT22;10349;48.666;8.948;2023-04-24T11:44:04;10.70;99.90
20380;DHT22;10349;48.666;8.948;2023-04-24T11:46:31;10.70;99.90
20380;DHT22;10349;48.666;8.948;2023-04-24T11:48:58;10.80;99.90
20380;DHT22;10349;48.666;8.948;2023-04-24T11:51:25;11.00;99.90
20380;DHT22;10349;48.666;8.948;2023-04-24T11:53:55;10.90;99.90
20380;DHT22;10349;48.666;8.948;2023-04-24T11:56:22;11.00;99.90
20380;DHT22;10349;48.666;8.948;2023-04-24T11:58:48;10.90;99.90
20380;DHT22;10349;48.666;8.948;2023-04-24T12:01:13;10.80;99.90
20380;DHT22;10349;48.666;8.948;2023-04-24T12:03:39;10.50;99.90
20380;DHT22;10349;48.666;8.948;2023-04-24T12:06:10;10.40;99.90
20380;DHT22;10349;48.666;8.948;2023-04-24T12:08:36;10.30;99.90
20380;DHT22;10349;48.666;8.948;2023-04-24T12:11:06;10.40;99.90
20380;DHT22;10349;48.666;8.948;2023-04-24T12:13:35;10.50;99.90
20380;DHT22;10349;48.666;8.948;2023-04-24T12:16:03;10.70;99.90
20380;DHT22;10349;48.666;8.948;2023-04-24T12:18:29;11.00;99.90
20380;DHT22;10349;48.666;8.948;2023-04-24T12:20:55;11.30;99.90
20380;DHT22;10349;48.666;8.948;2023-04-24T12:23:43;11.40;99.90
20380;DHT22;10349;48.666;8.948;2023-04-24T12:26:09;11.30;99.90
20380;DHT22;10349;48.666;8.948;2023-04-24T12:28:36;11.30;99.90
20380;DHT22;10349;48.666;8.948;2023-04-24T12:31:02;11.20;99.90
20380;DHT22;10349;48.666;8.948;2023-04-24T12:33:32;11.30;99.90
20380;DHT22;10349;48.666;8.948;2023-04-24T12:35:59;11.30;99.90
20380;DHT22;10349;48.666;8.948;2023-04-24T12:38:27;11.30;99.90
20380;DHT22;10349;48.666;8.948;2023-04-24T12:41:06;11.30;99.90
20380;DHT22;10349;48.666;8.948;2023-04-24T12:43:32;11.50;99.90
20380;DHT22;10349;48.666;8.948;2023-04-24T12:45:59;11.40;99.90
20380;DHT22;10349;48.666;8.948;2023-04-24T12:48:26;11.20;99.90
20380;DHT22;10349;48.666;8.948;2023-04-24T12:50:51;11.00;99.90
20380;DHT22;10349;48.666;8.948;2023-04-24T12:53:17;10.80;99.90
20380;DHT22;10349;48.666;8.948;2023-04-24T12:55:43;10.80;99.90
20380;DHT22;10349;48.666;8.948;2023-04-24T12:58:10;10.80;99.90
20380;DHT22;10349;48.666;8.948;2023-04-24T13:00:36;10.80;99.90
20380;DHT22;10349;48.666;8.948;2023-04-24T13:03:04;10.60;99.90
20380;DHT22;10349;48.666;8.948;2023-04-24T13:05:29;10.50;99.90
20380;DHT22;10349;48.666;8.948;2023-04-24T13:07:56;10.50;99.90
20380;DHT22;10349;48.666;8.948;2023-04-24T13:10:22;10.50;99.90
20380;DHT22;10349;48.666;8.948;2023-04-24T13:12:48;10.50;99.90
20380;DHT22;10349;48.666;8.948;2023-04-24T13:15:14;10.50;99.90
20380;DHT22;10349;48.666;8.948;2023-04-24T13:17:43;10.40;99.90
20380;DHT22;10349;48.666;8.948;2023-04-24T13:20:09;10.30;99.90
20380;DHT22;10349;48.666;8.948;2023-04-24T13:22:35;10.20;99.90
20380;DHT22;10349;48.666;8.948;2023-04-24T13:25:01;10.10;99.90
20380;DHT22;10349;48.666;8.948;2023-04-24T13:27:27;10.20;99.90
20380;DHT22;10349;48.666;8.948;2023-04-24T13:29:53;10.10;99.90
20380;DHT22;10349;48.666;8.948;2023-04-24T13:32:18;10.10;99.90
20380;DHT22;10349;48.666;8.948;2023-04-24T13:34:44;10.00;99.90
20380;DHT22;10349;48.666;8.948;2023-04-24T13:37:10;10.00;99.90
20380;DHT22;10349;48.666;8.948;2023-04-24T13:39:35;10.00;99.90
20380;DHT22;10349;48.666;8.948;2023-04-24T13:42:01;10.10;99.90
20380;DHT22;10349;48.666;8.948;2023-04-24T13:44:27;10.20;99.90
20380;DHT22;10349;48.666;8.948;2023-04-24T13:46:54;10.50;99.90
20380;DHT22;10349;48.666;8.948;2023-04-24T13:49:22;10.60;99.90
20380;DHT22;10349;48.666;8.948;2023-04-24T13:51:50;10.60;99.90
20380;DHT22;10349;48.666;8.948;2023-04-24T13:54:16;10.60;99.90
20380;DHT22;10349;48.666;8.948;2023-04-24T13:56:42;10.60;99.90
20380;DHT22;10349;48.666;8.948;2023-04-24T13:59:08;10.60;99.90
20380;DHT22;10349;48.666;8.948;2023-04-24T14:01:35;10.40;99.90
20380;DHT22;10349;48.666;8.948;2023-04-24T14:04:02;10.40;99.90
20380;DHT22;10349;48.666;8.948;2023-04-24T14:06:27;10.40;99.90
20380;DHT22;10349;48.666;8.948;2023-04-24T14:08:53;10.30;99.90
20380;DHT22;10349;48.666;8.948;2023-04-24T14:11:19;10.20;99.90
20380;DHT22;10349;48.666;8.948;2023-04-24T14:13:45;10.00;99.90
20380;DHT22;10349;48.666;8.948;2023-04-24T14:16:11;9.90;99.90
20380;DHT22;10349;48.666;8.948;2023-04-24T14:18:37;10.00;99.90
20380;DHT22;10349;48.666;8.948;2023-04-24T14:21:03;10.00;99.90
20380;DHT22;10349;48.666;8.948;2023-04-24T14:23:30;10.30;99.90
20380;DHT22;10349;48.666;8.948;2023-04-24T14:25:57;10.30;99.90
20380;DHT22;10349;48.666;8.948;2023-04-24T14:28:23;10.40;99.90
20380;DHT22;10349;48.666;8.948;2023-04-24T14:30:49;10.40;99.90
20380;DHT22;10349;48.666;8.948;2023-04-24T14:33:15;10.40;99.90
20380;DHT22;10349;48.666;8.948;2023-04-24T14:35:43;10.40;99.90
20380;DHT22;10349;48.666;8.948;2023-04-24T14:38:10;10.40;99.90
20380;DHT22;10349;48.666;8.948;2023-04-24T14:40:36;10.40;99.90
20380;DHT22;10349;48.666;8.948;2023-04-24T14:43:02;10.50;99.90
20380;DHT22;10349;48.666;8.948;2023-04-24T14:45:28;10.60;99.90
20380;DHT22;10349;48.666;8.948;2023-04-24T14:47:54;10.70;99.90
20380;DHT22;10349;48.666;8.948;2023-04-24T14:50:20;10.60;99.90
20380;DHT22;10349;48.666;8.948;2023-04-24T14:52:46;10.60;99.90
20380;DHT22;10349;48.666;8.948;2023-04-24T14:55:12;10.60;99.90
20380;DHT22;10349;48.666;8.948;2023-04-24T14:57:38;10.60;99.90
20380;DHT22;10349;48.666;8.948;2023-04-24T15:00:10;10.50;99.90
20380;DHT22;10349;48.666;8.948;2023-04-24T15:02:39;10.40;99.90
20380;DHT22;10349;48.666;8.948;2023-04-24T15:05:07;10.30;99.90
20380;DHT22;10349;48.666;8.948;2023-04-24T15:07:34;10.20;99.90
20380;DHT22;10349;48.666;8.948;2023-04-24T15:10:01;10.20;99.90
20380;DHT22;10349;48.666;8.948;2023-04-24T15:12:27;10.20;99.90
20380;DHT22;10349;48.666;8.948;2023-04-24T15:14:54;10.20;99.90
20380;DHT22;10349;48.666;8.948;2023-04-24T15:17:20;10.20;99.90
20380;DHT22;10349;48.666;8.948;2023-04-24T15:19:46;10.10;99.90
20380;DHT22;10349;48.666;8.948;2023-04-24T15:22:12;10.10;99.90
20380;DHT22;10349;48.666;8.948;2023-04-24T15:24:41;10.10;99.90
20380;DHT22;10349;48.666;8.948;2023-04-24T15:27:10;10.10;99.90
20380;DHT22;10349;48.666;8.948;2023-04-24T15:29:36;10.10;99.90
20380;DHT22;10349;48.666;8.948;2023-04-24T15:32:02;10.20;99.90
20380;DHT22;10349;48.666;8.948;2023-04-24T15:34:28;10.20;99.90
20380;DHT22;10349;48.666;8.948;2023-04-24T15:36:54;10.30;99.90
20380;DHT22;10349;48.666;8.948;2023-04-24T15:39:22;10.40;99.90
20380;DHT22;10349;48.666;8.948;2023-04-24T15:41:50;10.50;99.90
20380;DHT22;10349;48.666;8.948;2023-04-24T15:44:15;10.60;99.90
20380;DHT22;10349;48.666;8.948;2023-04-24T15:46:41;10.70;99.90
20380;DHT22;10349;48.666;8.948;2023-04-24T15:49:07;10.70;99.90
20380;DHT22;10349;48.666;8.948;2023-04-24T15:51:36;10.80;99.90